sensor_id;sensor_type;location;lat;lon;timestamp;pressure;altitude;pressure_sealevel;temperature;humidity
52719;BME280;38616;42.140;24.760;2024-01-10T00:02:04;100911.63;;;1.30;nan
52719;BME280;38616;42.140;24.760;2024-01-10T00:04:29;100911.34;;;1.10;nan
52719;BME280;38616;42.140;24.760;2024-01-10T00:06:55;100920.56;;;0.92;nan
52719;BME280;38616;42.140;24.760;2024-01-10T00:09:20;100920.75;;;0.91;nan
52719;BME280;38616;42.140;24.760;2024-01-10T00:11:45;100930.94;;;0.19;nan
52719;BME280;38616;42.140;24.760;2024-01-10T00:14:11;100926.09;;;-0.01;nan
52719;BME280;38616;42.140;24.760;2024-01-10T00:16:36;100929.78;;;-0.02;nan
52719;BME280;38616;42.140;24.760;2024-01-10T00:19:02;100927.38;;;0.03;nan
52719;BME280;38616;42.140;24.760;2024-01-10T00:21:28;100937.84;;;-0.10;nan
52719;BME280;38616;42.140;24.760;2024-01-10T00:23:53;100930.69;;;0.05;nan
52719;BME280;38616;42.140;24.760;2024-01-10T00:26:21;100932.25;;;0.61;nan
52719;BME280;38616;42.140;24.760;2024-01-10T00:28:47;100933.28;;;0.75;nan
52719;BME280;38616;42.140;24.760;2024-01-10T00:31:13;100939.28;;;0.62;nan
52719;BME280;38616;42.140;24.760;2024-01-10T00:33:39;100936.03;;;0.67;nan
52719;BME280;38616;42.140;24.760;2024-01-10T00:36:05;100943.81;;;0.38;nan
52719;BME280;38616;42.140;24.760;2024-01-10T00:38:31;100946.59;;;0.45;nan
52719;BME280;38616;42.140;24.760;2024-01-10T00:40:56;100938.59;;;0.22;nan
52719;BME280;38616;42.140;24.760;2024-01-10T00:43:22;100940.22;;;0.08;nan
52719;BME280;38616;42.140;24.760;2024-01-10T00:45:47;100950.00;;;-0.08;nan
52719;BME280;38616;42.140;24.760;2024-01-10T00:48:13;100948.38;;;0.06;nan
52719;BME280;38616;42.140;24.760;2024-01-10T00:50:39;100948.78;;;0.26;nan
52719;BME280;38616;42.140;24.760;2024-01-10T00:53:04;100955.63;;;0.67;nan
52719;BME280;38616;42.140;24.760;2024-01-10T00:55:30;100945.31;;;0.41;nan
52719;BME280;38616;42.140;24.760;2024-01-10T00:57:55;100948.66;;;0.43;nan
52719;BME280;38616;42.140;24.760;2024-01-10T01:00:21;100951.75;;;0.32;nan
52719;BME280;38616;42.140;24.760;2024-01-10T01:02:46;100947.63;;;0.21;nan
52719;BME280;38616;42.140;24.760;2024-01-10T01:05:12;100950.69;;;-0.14;nan
52719;BME280;38616;42.140;24.760;2024-01-10T01:07:37;100946.16;;;-0.05;nan
52719;BME280;38616;42.140;24.760;2024-01-10T01:10:03;100946.66;;;-0.10;nan
52719;BME280;38616;42.140;24.760;2024-01-10T01:12:29;100944.41;;;0.02;nan
52719;BME280;38616;42.140;24.760;2024-01-10T01:14:54;100941.66;;;0.57;nan
52719;BME280;38616;42.140;24.760;2024-01-10T01:17:20;100951.03;;;0.38;nan
52719;BME280;38616;42.140;24.760;2024-01-10T01:19:45;100946.03;;;0.11;nan
52719;BME280;38616;42.140;24.760;2024-01-10T01:22:13;100945.00;;;0.12;nan
52719;BME280;38616;42.140;24.760;2024-01-10T01:24:39;100950.22;;;-0.18;nan
52719;BME280;38616;42.140;24.760;2024-01-10T01:27:04;100946.66;;;0.13;nan
52719;BME280;38616;42.140;24.760;2024-01-10T01:29:29;100952.78;;;0.46;nan
52719;BME280;38616;42.140;24.760;2024-01-10T01:31:55;100950.38;;;0.36;nan
52719;BME280;38616;42.140;24.760;2024-01-10T01:34:21;100948.38;;;0.53;nan
52719;BME280;38616;42.140;24.760;2024-01-10T01:36:47;100951.72;;;0.55;nan
52719;BME280;38616;42.140;24.760;2024-01-10T01:39:12;100955.00;;;0.19;nan
52719;BME280;38616;42.140;24.760;2024-01-10T01:41:41;100952.44;;;0.02;nan
52719;BME280;38616;42.140;24.760;2024-01-10T01:44:06;100946.84;;;0.35;nan
52719;BME280;38616;42.140;24.760;2024-01-10T01:46:32;100950.81;;;0.39;nan
52719;BME280;38616;42.140;24.760;2024-01-10T01:48:59;100952.22;;;0.12;nan
52719;BME280;38616;42.140;24.760;2024-01-10T01:51:25;100951.97;;;0.22;nan
52719;BME280;38616;42.140;24.760;2024-01-10T01:53:53;100947.75;;;0.27;nan
52719;BME280;38616;42.140;24.760;2024-01-10T01:56:20;100945.91;;;0.28;nan
52719;BME280;38616;42.140;24.760;2024-01-10T01:58:46;100938.34;;;0.08;nan
52719;BME280;38616;42.140;24.760;2024-01-10T02:01:12;100937.25;;;0.03;nan
52719;BME280;38616;42.140;24.760;2024-01-10T02:03:37;100935.81;;;0.38;nan
52719;BME280;38616;42.140;24.760;2024-01-10T02:06:03;100928.38;;;0.49;nan
52719;BME280;38616;42.140;24.760;2024-01-10T02:08:31;100935.09;;;0.44;nan
52719;BME280;38616;42.140;24.760;2024-01-10T02:10:57;100936.94;;;0.44;nan
52719;BME280;38616;42.140;24.760;2024-01-10T02:13:23;100929.03;;;0.66;nan
52719;BME280;38616;42.140;24.760;2024-01-10T02:15:49;100924.66;;;0.88;nan
52719;BME280;38616;42.140;24.760;2024-01-10T02:18:15;100922.41;;;0.77;nan
52719;BME280;38616;42.140;24.760;2024-01-10T02:20:43;100926.13;;;1.06;nan
52719;BME280;38616;42.140;24.760;2024-01-10T02:23:09;100919.00;;;1.13;nan
52719;BME280;38616;42.140;24.760;2024-01-10T02:25:35;100920.31;;;1.17;nan
52719;BME280;38616;42.140;24.760;2024-01-10T02:28:01;100918.84;;;1.14;nan
52719;BME280;38616;42.140;24.760;2024-01-10T02:30:26;100921.31;;;1.01;nan
52719;BME280;38616;42.140;24.760;2024-01-10T02:32:52;100909.69;;;1.09;nan
52719;BME280;38616;42.140;24.760;2024-01-10T02:35:17;100917.34;;;1.12;nan
52719;BME280;38616;42.140;24.760;2024-01-10T02:37:43;100916.25;;;1.06;nan
52719;BME280;38616;42.140;24.760;2024-01-10T02:40:09;100906.66;;;0.97;nan
52719;BME280;38616;42.140;24.760;2024-01-10T02:42:35;100905.53;;;1.06;nan
52719;BME280;38616;42.140;24.760;2024-01-10T02:45:00;100907.84;;;1.24;nan
52719;BME280;38616;42.140;24.760;2024-01-10T02:47:26;100911.53;;;1.08;nan
52719;BME280;38616;42.140;24.760;2024-01-10T02:49:51;100909.97;;;1.14;nan
52719;BME280;38616;42.140;24.760;2024-01-10T02:52:17;100907.03;;;1.24;nan
52719;BME280;38616;42.140;24.760;2024-01-10T02:54:45;100913.84;;;0.96;nan
52719;BME280;38616;42.140;24.760;2024-01-10T02:57:11;100907.84;;;0.94;nan
52719;BME280;38616;42.140;24.760;2024-01-10T02:59:36;100909.88;;;1.22;nan
52719;BME280;38616;42.140;24.760;2024-01-10T03:02:02;100911.34;;;1.10;nan
52719;BME280;38616;42.140;24.760;2024-01-10T03:04:27;100923.88;;;0.64;nan
52719;BME280;38616;42.140;24.760;2024-01-10T03:06:53;100921.69;;;0.29;nan
52719;BME280;38616;42.140;24.760;2024-01-10T03:09:18;100912.28;;;0.34;nan
52719;BME280;38616;42.140;24.760;2024-01-10T03:11:44;100910.16;;;0.06;nan
52719;BME280;38616;42.140;24.760;2024-01-10T03:14:10;100918.59;;;0.41;nan
52719;BME280;38616;42.140;24.760;2024-01-10T03:16:36;100910.94;;;0.53;nan
52719;BME280;38616;42.140;24.760;2024-01-10T03:19:02;100908.28;;;0.53;nan
52719;BME280;38616;42.140;24.760;2024-01-10T03:21:28;100907.47;;;0.67;nan
52719;BME280;38616;42.140;24.760;2024-01-10T03:23:55;100902.72;;;0.54;nan
52719;BME280;38616;42.140;24.760;2024-01-10T03:26:21;100902.47;;;0.64;nan
52719;BME280;38616;42.140;24.760;2024-01-10T03:31:21;100908.06;;;0.39;nan
52719;BME280;38616;42.140;24.760;2024-01-10T03:33:47;100905.31;;;0.48;nan
52719;BME280;38616;42.140;24.760;2024-01-10T03:36:16;100911.44;;;0.71;nan
52719;BME280;38616;42.140;24.760;2024-01-10T03:38:43;100918.09;;;0.37;nan
52719;BME280;38616;42.140;24.760;2024-01-10T03:41:19;100915.06;;;0.40;nan
52719;BME280;38616;42.140;24.760;2024-01-10T03:43:45;100908.13;;;0.31;nan
52719;BME280;38616;42.140;24.760;2024-01-10T03:46:11;100915.94;;;0.56;nan
52719;BME280;38616;42.140;24.760;2024-01-10T03:48:37;100914.66;;;0.28;nan
52719;BME280;38616;42.140;24.760;2024-01-10T03:51:03;100921.69;;;0.29;nan
52719;BME280;38616;42.140;24.760;2024-01-10T03:53:30;100908.00;;;0.01;nan
52719;BME280;38616;42.140;24.760;2024-01-10T03:55:55;100915.88;;;0.03;nan
52719;BME280;38616;42.140;24.760;2024-01-10T03:58:23;100917.53;;;0.04;nan
52719;BME280;38616;42.140;24.760;2024-01-10T04:00:48;100921.31;;;0.09;nan
52719;BME280;38616;42.140;24.760;2024-01-10T04:03:14;100923.13;;;0.17;nan
52719;BME280;38616;42.140;24.760;2024-01-10T04:05:41;100927.47;;;0.33;nan
52719;BME280;38616;42.140;24.760;2024-01-10T04:08:06;100925.78;;;0.17;nan
52719;BME280;38616;42.140;24.760;2024-01-10T04:10:32;100922.25;;;0.40;nan
52719;BME280;38616;42.140;24.760;2024-01-10T04:12:57;100922.03;;;0.65;nan
52719;BME280;38616;42.140;24.760;2024-01-10T04:15:23;100922.03;;;0.65;nan
52719;BME280;38616;42.140;24.760;2024-01-10T04:17:48;100919.31;;;0.35;nan
52719;BME280;38616;42.140;24.760;2024-01-10T04:20:14;100922.25;;;0.40;nan
52719;BME280;38616;42.140;24.760;2024-01-10T04:22:39;100929.56;;;-0.01;nan
52719;BME280;38616;42.140;24.760;2024-01-10T04:25:06;100925.59;;;-0.05;nan
52719;BME280;38616;42.140;24.760;2024-01-10T04:27:32;100927.16;;;0.13;nan
52719;BME280;38616;42.140;24.760;2024-01-10T04:29:58;100926.66;;;0.09;nan
52719;BME280;38616;42.140;24.760;2024-01-10T04:32:23;100932.50;;;0.13;nan
52719;BME280;38616;42.140;24.760;2024-01-10T04:34:49;100940.63;;;-0.04;nan
52719;BME280;38616;42.140;24.760;2024-01-10T04:37:15;100932.91;;;0.25;nan
52719;BME280;38616;42.140;24.760;2024-01-10T04:39:41;100938.03;;;0.50;nan
52719;BME280;38616;42.140;24.760;2024-01-10T04:42:08;100948.66;;;0.58;nan
52719;BME280;38616;42.140;24.760;2024-01-10T04:44:35;100941.66;;;0.57;nan
52719;BME280;38616;42.140;24.760;2024-01-10T04:47:01;100952.00;;;0.60;nan
52719;BME280;38616;42.140;24.760;2024-01-10T04:49:26;100951.81;;;0.62;nan
52719;BME280;38616;42.140;24.760;2024-01-10T04:51:52;100953.78;;;0.44;nan
52719;BME280;38616;42.140;24.760;2024-01-10T04:54:17;100954.81;;;0.43;nan
52719;BME280;38616;42.140;24.760;2024-01-10T04:56:43;100959.78;;;-0.63;nan
52719;BME280;38616;42.140;24.760;2024-01-10T04:59:08;100961.78;;;-0.25;nan
52719;BME280;38616;42.140;24.760;2024-01-10T05:01:34;100967.28;;;-1.15;nan
52719;BME280;38616;42.140;24.760;2024-01-10T05:04:01;100971.28;;;-1.52;nan
52719;BME280;38616;42.140;24.760;2024-01-10T05:06:27;100972.78;;;-1.74;nan
52719;BME280;38616;42.140;24.760;2024-01-10T05:08:52;100973.94;;;-1.60;nan
52719;BME280;38616;42.140;24.760;2024-01-10T05:11:18;100977.13;;;-1.73;nan
52719;BME280;38616;42.140;24.760;2024-01-10T05:13:44;100976.63;;;-1.85;nan
52719;BME280;38616;42.140;24.760;2024-01-10T05:16:09;100972.78;;;-1.83;nan
52719;BME280;38616;42.140;24.760;2024-01-10T05:18:38;100972.47;;;-1.55;nan
52719;BME280;38616;42.140;24.760;2024-01-10T05:21:03;100974.19;;;-0.81;nan
52719;BME280;38616;42.140;24.760;2024-01-10T05:23:29;100976.38;;;-0.36;nan
52719;BME280;38616;42.140;24.760;2024-01-10T05:25:55;100975.78;;;0.08;nan
52719;BME280;38616;42.140;24.760;2024-01-10T05:28:20;100977.63;;;0.31;nan
52719;BME280;38616;42.140;24.760;2024-01-10T05:30:46;100976.84;;;0.46;nan
52719;BME280;38616;42.140;24.760;2024-01-10T05:33:12;100991.34;;;0.28;nan
52719;BME280;38616;42.140;24.760;2024-01-10T05:35:38;100981.16;;;0.32;nan
52719;BME280;38616;42.140;24.760;2024-01-10T05:38:04;100984.31;;;0.50;nan
52719;BME280;38616;42.140;24.760;2024-01-10T05:40:29;100986.47;;;0.55;nan
52719;BME280;38616;42.140;24.760;2024-01-10T05:42:56;100981.47;;;0.52;nan
52719;BME280;38616;42.140;24.760;2024-01-10T05:45:21;100983.94;;;0.38;nan
52719;BME280;38616;42.140;24.760;2024-01-10T05:47:47;100988.06;;;0.64;nan
52719;BME280;38616;42.140;24.760;2024-01-10T05:50:16;100985.09;;;0.12;nan
52719;BME280;38616;42.140;24.760;2024-01-10T05:52:42;100988.13;;;-0.62;nan
52719;BME280;38616;42.140;24.760;2024-01-10T05:55:09;100989.59;;;-1.08;nan
52719;BME280;38616;42.140;24.760;2024-01-10T05:57:36;100982.59;;;-1.17;nan
52719;BME280;38616;42.140;24.760;2024-01-10T06:00:03;100985.84;;;-0.73;nan
52719;BME280;38616;42.140;24.760;2024-01-10T06:02:30;100990.94;;;-1.03;nan
52719;BME280;38616;42.140;24.760;2024-01-10T06:04:55;100994.28;;;-0.45;nan
52719;BME280;38616;42.140;24.760;2024-01-10T06:07:21;100996.28;;;0.16;nan
52719;BME280;38616;42.140;24.760;2024-01-10T06:09:46;100996.94;;;0.41;nan
52719;BME280;38616;42.140;24.760;2024-01-10T06:12:13;100997.28;;;0.38;nan
52719;BME280;38616;42.140;24.760;2024-01-10T06:14:39;101006.19;;;0.77;nan
52719;BME280;38616;42.140;24.760;2024-01-10T06:17:04;101009.44;;;0.87;nan
52719;BME280;38616;42.140;24.760;2024-01-10T06:19:30;101016.00;;;0.85;nan
52719;BME280;38616;42.140;24.760;2024-01-10T06:21:59;101018.50;;;1.01;nan
52719;BME280;38616;42.140;24.760;2024-01-10T06:24:25;101022.31;;;1.22;nan
52719;BME280;38616;42.140;24.760;2024-01-10T06:26:51;101023.31;;;1.06;nan
52719;BME280;38616;42.140;24.760;2024-01-10T06:29:17;101027.47;;;1.09;nan
52719;BME280;38616;42.140;24.760;2024-01-10T06:31:43;101035.47;;;1.09;nan
52719;BME280;38616;42.140;24.760;2024-01-10T06:34:08;101053.41;;;1.08;nan
52719;BME280;38616;42.140;24.760;2024-01-10T06:36:34;101046.25;;;1.00;nan
52719;BME280;38616;42.140;24.760;2024-01-10T06:39:00;101050.25;;;0.66;nan
52719;BME280;38616;42.140;24.760;2024-01-10T06:41:25;101047.50;;;0.51;nan
52719;BME280;38616;42.140;24.760;2024-01-10T06:43:51;101049.28;;;0.59;nan
52719;BME280;38616;42.140;24.760;2024-01-10T06:46:17;101052.53;;;0.46;nan
52719;BME280;38616;42.140;24.760;2024-01-10T06:48:43;101049.75;;;0.63;nan
52719;BME280;38616;42.140;24.760;2024-01-10T06:51:14;101046.91;;;0.64;nan
52719;BME280;38616;42.140;24.760;2024-01-10T06:53:40;101050.97;;;0.37;nan
52719;BME280;38616;42.140;24.760;2024-01-10T06:56:06;101058.69;;;0.55;nan
52719;BME280;38616;42.140;24.760;2024-01-10T06:58:32;101058.00;;;0.76;nan
52719;BME280;38616;42.140;24.760;2024-01-10T07:00:58;101058.69;;;0.55;nan
52719;BME280;38616;42.140;24.760;2024-01-10T07:03:26;101054.72;;;0.89;nan
52719;BME280;38616;42.140;24.760;2024-01-10T07:05:52;101065.31;;;0.82;nan
52719;BME280;38616;42.140;24.760;2024-01-10T07:08:17;101064.69;;;0.57;nan
52719;BME280;38616;42.140;24.760;2024-01-10T07:10:43;101062.25;;;0.70;nan
52719;BME280;38616;42.140;24.760;2024-01-10T07:13:10;101067.97;;;0.67;nan
52719;BME280;38616;42.140;24.760;2024-01-10T07:15:36;101061.94;;;0.65;nan
52719;BME280;38616;42.140;24.760;2024-01-10T07:18:02;101073.06;;;0.54;nan
52719;BME280;38616;42.140;24.760;2024-01-10T07:20:28;101069.69;;;0.60;nan
52719;BME280;38616;42.140;24.760;2024-01-10T07:22:53;101068.41;;;0.48;nan
52719;BME280;38616;42.140;24.760;2024-01-10T07:25:20;101077.09;;;0.73;nan
52719;BME280;38616;42.140;24.760;2024-01-10T07:27:47;101080.63;;;0.73;nan
52719;BME280;38616;42.140;24.760;2024-01-10T07:30:13;101078.00;;;0.88;nan
52719;BME280;38616;42.140;24.760;2024-01-10T07:32:47;101083.56;;;1.02;nan
52719;BME280;38616;42.140;24.760;2024-01-10T07:35:16;101088.41;;;0.83;nan
52719;BME280;38616;42.140;24.760;2024-01-10T07:37:42;101094.66;;;0.76;nan
52719;BME280;38616;42.140;24.760;2024-01-10T07:40:08;101092.78;;;0.99;nan
52719;BME280;38616;42.140;24.760;2024-01-10T07:42:36;101101.00;;;0.98;nan
52719;BME280;38616;42.140;24.760;2024-01-10T07:45:02;101097.41;;;1.06;nan
52719;BME280;38616;42.140;24.760;2024-01-10T07:47:31;101093.91;;;1.05;nan
52719;BME280;38616;42.140;24.760;2024-01-10T07:50:00;101101.22;;;1.11;nan
52719;BME280;38616;42.140;24.760;2024-01-10T07:52:26;101104.34;;;1.15;nan
52719;BME280;38616;42.140;24.760;2024-01-10T07:54:52;101099.19;;;1.13;nan
52719;BME280;38616;42.140;24.760;2024-01-10T07:57:17;101100.63;;;1.01;nan
52719;BME280;38616;42.140;24.760;2024-01-10T07:59:44;101111.09;;;1.11;nan
52719;BME280;38616;42.140;24.760;2024-01-10T08:02:13;101107.03;;;1.15;nan
52719;BME280;38616;42.140;24.760;2024-01-10T08:04:38;101107.69;;;1.17;nan
52719;BME280;38616;42.140;24.760;2024-01-10T08:07:04;101105.50;;;1.21;nan
52719;BME280;38616;42.140;24.760;2024-01-10T08:09:33;101110.78;;;1.06;nan
52719;BME280;38616;42.140;24.760;2024-01-10T08:11:58;101104.25;;;1.08;nan
52719;BME280;38616;42.140;24.760;2024-01-10T08:14:24;101105.78;;;1.02;nan
52719;BME280;38616;42.140;24.760;2024-01-10T08:16:49;101105.38;;;1.14;nan
52719;BME280;38616;42.140;24.760;2024-01-10T08:19:16;101112.97;;;1.25;nan
52719;BME280;38616;42.140;24.760;2024-01-10T08:21:41;101109.81;;;0.83;nan
52719;BME280;38616;42.140;24.760;2024-01-10T08:24:07;101102.81;;;0.97;nan
52719;BME280;38616;42.140;24.760;2024-01-10T08:26:32;101104.03;;;0.95;nan
52719;BME280;38616;42.140;24.760;2024-01-10T08:28:58;101105.81;;;0.79;nan
52719;BME280;38616;42.140;24.760;2024-01-10T08:31:23;101106.50;;;0.96;nan
52719;BME280;38616;42.140;24.760;2024-01-10T08:33:49;101100.16;;;0.97;nan
52719;BME280;38616;42.140;24.760;2024-01-10T08:36:15;101106.28;;;1.06;nan
52719;BME280;38616;42.140;24.760;2024-01-10T08:38:42;101107.91;;;1.30;nan
52719;BME280;38616;42.140;24.760;2024-01-10T08:41:08;101094.91;;;1.42;nan
52719;BME280;38616;42.140;24.760;2024-01-10T08:43:37;101099.06;;;1.45;nan
52719;BME280;38616;42.140;24.760;2024-01-10T08:46:03;101098.50;;;1.35;nan
52719;BME280;38616;42.140;24.760;2024-01-10T08:48:29;101096.09;;;1.25;nan
52719;BME280;38616;42.140;24.760;2024-01-10T08:50:57;101096.78;;;1.72;nan
52719;BME280;38616;42.140;24.760;2024-01-10T08:53:22;101096.13;;;1.70;nan
52719;BME280;38616;42.140;24.760;2024-01-10T08:55:48;101092.78;;;1.53;nan
52719;BME280;38616;42.140;24.760;2024-01-10T08:58:15;101088.09;;;1.70;nan
52719;BME280;38616;42.140;24.760;2024-01-10T09:00:40;101083.28;;;1.65;nan
52719;BME280;38616;42.140;24.760;2024-01-10T09:03:06;101090.66;;;1.63;nan
52719;BME280;38616;42.140;24.760;2024-01-10T09:05:32;101088.09;;;1.70;nan
52719;BME280;38616;42.140;24.760;2024-01-10T09:07:58;101083.91;;;1.82;nan
52719;BME280;38616;42.140;24.760;2024-01-10T09:10:23;101068.59;;;1.91;nan
52719;BME280;38616;42.140;24.760;2024-01-10T09:12:53;101086.72;;;1.74;nan
52719;BME280;38616;42.140;24.760;2024-01-10T09:15:19;101079.94;;;1.78;nan
52719;BME280;38616;42.140;24.760;2024-01-10T09:17:44;101085.94;;;1.80;nan
52719;BME280;38616;42.140;24.760;2024-01-10T09:20:11;101079.31;;;1.76;nan
52719;BME280;38616;42.140;24.760;2024-01-10T09:22:38;101076.66;;;1.76;nan
52719;BME280;38616;42.140;24.760;2024-01-10T09:25:07;101075.13;;;2.03;nan
52719;BME280;38616;42.140;24.760;2024-01-10T09:27:33;101075.47;;;2.15;nan
52719;BME280;38616;42.140;24.760;2024-01-10T09:30:00;101077.44;;;2.06;nan
52719;BME280;38616;42.140;24.760;2024-01-10T09:32:33;101070.31;;;1.99;nan
52719;BME280;38616;42.140;24.760;2024-01-10T09:34:59;101067.81;;;2.12;nan
52719;BME280;38616;42.140;24.760;2024-01-10T09:37:25;101067.28;;;1.87;nan
52719;BME280;38616;42.140;24.760;2024-01-10T09:39:50;101061.81;;;1.80;nan
52719;BME280;38616;42.140;24.760;2024-01-10T09:42:17;101054.25;;;1.24;nan
52719;BME280;38616;42.140;24.760;2024-01-10T09:44:45;101061.78;;;1.58;nan
52719;BME280;38616;42.140;24.760;2024-01-10T09:47:11;101055.94;;;1.70;nan
52719;BME280;38616;42.140;24.760;2024-01-10T09:49:38;101055.44;;;1.81;nan
52719;BME280;38616;42.140;24.760;2024-01-10T09:52:04;101058.03;;;1.44;nan
52719;BME280;38616;42.140;24.760;2024-01-10T09:54:32;101058.34;;;1.35;nan
52719;BME280;38616;42.140;24.760;2024-01-10T09:56:59;101059.09;;;1.58;nan
52719;BME280;38616;42.140;24.760;2024-01-10T09:59:25;101046.50;;;1.89;nan
52719;BME280;38616;42.140;24.760;2024-01-10T10:01:56;101043.25;;;1.94;nan
52719;BME280;38616;42.140;24.760;2024-01-10T10:04:22;101040.72;;;2.07;nan
52719;BME280;38616;42.140;24.760;2024-01-10T10:07:01;101041.00;;;1.60;nan
52719;BME280;38616;42.140;24.760;2024-01-10T10:09:28;101034.25;;;1.65;nan
52719;BME280;38616;42.140;24.760;2024-01-10T10:11:55;101038.41;;;1.52;nan
52719;BME280;38616;42.140;24.760;2024-01-10T10:14:21;101026.38;;;1.63;nan
52719;BME280;38616;42.140;24.760;2024-01-10T10:16:47;101030.97;;;1.84;nan
52719;BME280;38616;42.140;24.760;2024-01-10T10:19:22;101033.28;;;1.42;nan
52719;BME280;38616;42.140;24.760;2024-01-10T10:21:48;101027.28;;;1.25;nan
52719;BME280;38616;42.140;24.760;2024-01-10T10:24:14;101030.91;;;1.32;nan
52719;BME280;38616;42.140;24.760;2024-01-10T10:26:39;101024.53;;;1.33;nan
52719;BME280;38616;42.140;24.760;2024-01-10T10:29:06;101021.66;;;1.35;nan
52719;BME280;38616;42.140;24.760;2024-01-10T10:31:32;101023.25;;;1.29;nan
52719;BME280;38616;42.140;24.760;2024-01-10T10:33:59;101015.16;;;0.99;nan
52719;BME280;38616;42.140;24.760;2024-01-10T10:36:30;101011.72;;;1.29;nan
52719;BME280;38616;42.140;24.760;2024-01-10T10:38:55;101010.13;;;1.35;nan
52719;BME280;38616;42.140;24.760;2024-01-10T10:41:21;101011.50;;;1.30;nan
52719;BME280;38616;42.140;24.760;2024-01-10T10:43:48;101011.06;;;1.42;nan
52719;BME280;38616;42.140;24.760;2024-01-10T10:46:15;101006.16;;;1.30;nan
52719;BME280;38616;42.140;24.760;2024-01-10T10:48:42;101003.03;;;1.27;nan
52719;BME280;38616;42.140;24.760;2024-01-10T10:51:26;101002.66;;;1.30;nan
52719;BME280;38616;42.140;24.760;2024-01-10T10:53:53;100992.31;;;1.27;nan
52719;BME280;38616;42.140;24.760;2024-01-10T10:56:20;100986.50;;;1.53;nan
52719;BME280;38616;42.140;24.760;2024-01-10T10:58:46;100989.75;;;1.85;nan
52719;BME280;38616;42.140;24.760;2024-01-10T11:01:12;100986.00;;;1.50;nan
52719;BME280;38616;42.140;24.760;2024-01-10T11:03:40;100971.53;;;1.44;nan
52719;BME280;38616;42.140;24.760;2024-01-10T11:06:07;100968.25;;;1.79;nan
52719;BME280;38616;42.140;24.760;2024-01-10T11:08:53;100962.63;;;2.32;nan
52719;BME280;38616;42.140;24.760;2024-01-10T11:20:44;100959.16;;;2.16;nan
52719;BME280;38616;42.140;24.760;2024-01-10T11:23:37;100960.06;;;2.24;nan
52719;BME280;38616;42.140;24.760;2024-01-10T11:26:04;100953.38;;;2.13;nan
52719;BME280;38616;42.140;24.760;2024-01-10T11:28:33;100952.13;;;2.15;nan
52719;BME280;38616;42.140;24.760;2024-01-10T11:30:59;100948.69;;;2.00;nan
52719;BME280;38616;42.140;24.760;2024-01-10T11:33:45;100946.53;;;2.32;nan
52719;BME280;38616;42.140;24.760;2024-01-10T11:36:15;100945.88;;;2.51;nan
52719;BME280;38616;42.140;24.760;2024-01-10T11:46:49;100941.97;;;2.83;nan
52719;BME280;38616;42.140;24.760;2024-01-10T11:49:19;100938.97;;;2.99;nan
52719;BME280;38616;42.140;24.760;2024-01-10T11:51:50;100932.72;;;2.92;nan
52719;BME280;38616;42.140;24.760;2024-01-10T11:54:35;100925.47;;;2.86;nan
52719;BME280;38616;42.140;24.760;2024-01-10T11:57:01;100931.47;;;2.88;nan
52719;BME280;38616;42.140;24.760;2024-01-10T11:59:29;100918.47;;;3.27;nan
52719;BME280;38616;42.140;24.760;2024-01-10T12:01:56;100913.53;;;3.30;nan
52719;BME280;38616;42.140;24.760;2024-01-10T12:04:21;100907.59;;;3.42;nan
52719;BME280;38616;42.140;24.760;2024-01-10T12:06:47;100912.53;;;3.38;nan
52719;BME280;38616;42.140;24.760;2024-01-10T12:09:12;100902.22;;;3.42;nan
52719;BME280;38616;42.140;24.760;2024-01-10T12:11:41;100907.22;;;3.51;nan
52719;BME280;38616;42.140;24.760;2024-01-10T12:14:10;100904.94;;;3.55;nan
52719;BME280;38616;42.140;24.760;2024-01-10T12:16:36;100902.69;;;3.65;nan
52719;BME280;38616;42.140;24.760;2024-01-10T12:19:04;100899.19;;;3.72;nan
52719;BME280;38616;42.140;24.760;2024-01-10T12:21:30;100891.81;;;3.94;nan
52719;BME280;38616;42.140;24.760;2024-01-10T12:23:55;100892.84;;;3.86;nan
52719;BME280;38616;42.140;24.760;2024-01-10T12:26:21;100893.19;;;3.63;nan
52719;BME280;38616;42.140;24.760;2024-01-10T12:29:07;100892.34;;;3.62;nan
52719;BME280;38616;42.140;24.760;2024-01-10T12:31:32;100886.75;;;3.57;nan
52719;BME280;38616;42.140;24.760;2024-01-10T12:34:01;100890.69;;;3.61;nan
52719;BME280;38616;42.140;24.760;2024-01-10T12:36:26;100887.81;;;3.69;nan
52719;BME280;38616;42.140;24.760;2024-01-10T12:38:52;100879.09;;;3.54;nan
52719;BME280;38616;42.140;24.760;2024-01-10T12:41:18;100879.34;;;3.73;nan
52719;BME280;38616;42.140;24.760;2024-01-10T12:43:53;100882.06;;;3.86;nan
52719;BME280;38616;42.140;24.760;2024-01-10T12:46:22;100877.75;;;4.05;nan
52719;BME280;38616;42.140;24.760;2024-01-10T12:49:04;100878.34;;;3.87;nan
52719;BME280;38616;42.140;24.760;2024-01-10T12:51:31;100873.00;;;3.94;nan
52719;BME280;38616;42.140;24.760;2024-01-10T12:53:59;100878.34;;;3.87;nan
52719;BME280;38616;42.140;24.760;2024-01-10T12:56:25;100871.06;;;3.61;nan
52719;BME280;38616;42.140;24.760;2024-01-10T12:58:51;100873.56;;;3.69;nan
52719;BME280;38616;42.140;24.760;2024-01-10T13:01:16;100870.91;;;3.89;nan
52719;BME280;38616;42.140;24.760;2024-01-10T13:03:42;100870.91;;;3.82;nan
52719;BME280;38616;42.140;24.760;2024-01-10T13:06:09;100871.25;;;3.52;nan
52719;BME280;38616;42.140;24.760;2024-01-10T13:08:34;100863.78;;;3.41;nan
52719;BME280;38616;42.140;24.760;2024-01-10T13:11:00;100879.13;;;3.67;nan
52719;BME280;38616;42.140;24.760;2024-01-10T13:13:25;100873.56;;;3.69;nan
52719;BME280;38616;42.140;24.760;2024-01-10T13:15:51;100874.81;;;3.80;nan
52719;BME280;38616;42.140;24.760;2024-01-10T13:18:17;100875.06;;;3.92;nan
52719;BME280;38616;42.140;24.760;2024-01-10T13:20:43;100873.19;;;3.99;nan
52719;BME280;38616;42.140;24.760;2024-01-10T13:23:09;100878.38;;;3.94;nan
52719;BME280;38616;42.140;24.760;2024-01-10T13:25:35;100872.53;;;3.77;nan
52719;BME280;38616;42.140;24.760;2024-01-10T13:28:03;100871.66;;;3.49;nan